Ryoho Maru No.2 — JD2964 — position and weather

sailwx.info

Track history (hours):
 
Tides and Currents Weather Stations Pressure Air Temp Water Temp Dewpoint Dewpoint Depression Visibility Wind Speed Wind Dir Waves Ship Positions

Ryoho Maru No.2

Last reported at 2015-Jun-24 22:19 UTC. Time now 2015-Jul-07 11:06 UTC.
Position N 35°36' E 140°50'.
Warning: this ship's position is 12 days out of date.

Length 57 m; draft 4 m.

Type: Tanker. MMSI: 431001062.

Date/timePositionNaut miles runAvg speedWind from/ knotsBaromVisibWave heightAir tempDewpointWater temp
2015-Jun-24 22:19N 35°36' E 140°50'7 9.0
2015-Jun-24 21:29N 35°31' E 140°44'9 9.4
2015-Jun-24 20:31N 35°24' E 140°37'9 9.6
2015-Jun-24 19:33N 35°16' E 140°30'1310.4
2015-Jun-24 18:19N 35°06' E 140°20'7 9.5
2015-Jun-24 17:33N 35°02' E 140°13'9 9.3
2015-Jun-24 16:33N 34°56' E 140°04'16 7.8
2015-Jun-24 14:33N 34°57' E 139°45'10 9.6
2015-Jun-24 13:33N 35°06' E 139°46'10 9.5
2015-Jun-24 12:33N 35°16' E 139°46'9 9.0
2015-Jun-24 11:33N 35°25' E 139°43'9 9.2
2015-Jun-24 10:33N 35°30' E 139°53'7 6.1
2015-Jun-24 09:27N 35°28' E 140°01'0 0.0
2015-Jun-24 08:33N 35°28' E 140°01'0 0.0
2015-Jun-24 07:33N 35°28' E 140°01'0 0.0
2015-Jun-24 06:33N 35°28' E 140°01'0 0.4
2015-Jun-24 05:33N 35°29' E 140°01'2 2.1
2015-Jun-24 04:33N 35°30' E 139°59'0 0.3
2015-Jun-24 03:34N 35°30' E 139°58'1010.0
2015-Jun-24 02:34N 35°31' E 139°46'1 0.9
2015-Jun-24 01:33N 35°32' E 139°45'0 0.0
2015-Jun-24 00:27N 35°32' E 139°45'3 3.1
2015-Jun-23 23:33N 35°30' E 139°48'2 1.8
2015-Jun-23 22:32N 35°29' E 139°46'0 0.0
2015-Jun-23 21:32N 35°29' E 139°46'0 0.0
2015-Jun-23 20:32N 35°29' E 139°46'0 0.0
2015-Jun-23 19:32N 35°29' E 139°46'0 0.0
2015-Jun-23 19:05N 35°29' E 139°46'29 1.2
2015-Jun-22 19:33N 35°01' E 139°39'  
2015-Jun-19 15:23N 34°56' E 139°34'910.7
2015-Jun-19 14:33N 34°60' E 139°44'5 4.5
2015-Jun-19 13:22N 35°00' E 139°51'0 0.0
2015-Jun-19 12:28N 35°00' E 139°51'0 0.0
2015-Jun-19 11:28N 35°00' E 139°51'0 0.0
2015-Jun-19 10:31N 35°00' E 139°51'0 0.0
2015-Jun-19 09:28N 35°00' E 139°51'0 0.0
2015-Jun-19 08:28N 35°00' E 139°51'0 0.0
2015-Jun-19 07:28N 35°00' E 139°51'0 0.0
2015-Jun-19 06:10N 35°00' E 139°51'0 0.0
2015-Jun-19 05:31N 35°00' E 139°51'0 0.0
2015-Jun-19 04:22N 35°00' E 139°51'0 0.0
2015-Jun-19 03:28N 35°00' E 139°51'0 0.0
2015-Jun-19 02:28N 35°00' E 139°51'0 0.0
2015-Jun-19 01:31N 35°00' E 139°51'0 0.0
2015-Jun-19 00:28N 35°00' E 139°51'4 4.4
2015-Jun-18 23:34N 35°00' E 139°46'13 6.7
2015-Jun-18 21:33N 34°55' E 140°01'1010.3
2015-Jun-18 20:33N 35°01' E 140°12'13 9.7
2015-Jun-18 19:14N 35°08' E 140°24'8 9.8
2015-Jun-18 18:24N 35°15' E 140°30'910.7
2015-Jun-18 17:33N 35°22' E 140°36'1010.2
2015-Jun-18 16:34N 35°30' E 140°44'1110.5
2015-Jun-18 15:34N 35°39' E 140°52'10 9.9
2015-Jun-18 14:32N 35°48' E 140°55'1010.3
2015-Jun-18 13:33N 35°59' E 140°56'  
Track history (hours):
 
Tides and Currents Weather Stations Pressure Air Temp Water Temp Dewpoint Dewpoint Depression Visibility Wind Speed Wind Dir Waves Ship Positions

Ryoho Maru No.2

Last reported at 2015-Jun-24 22:19 UTC. Time now 2015-Jul-07 11:06 UTC.
Position N 35°36' E 140°50'.
Warning: this ship's position is 12 days out of date.

Length 57 m; draft 4 m.

Type: Tanker. MMSI: 431001062.

Date/timePositionNaut miles runAvg speedWind from/ knotsBaromVisibWave heightAir tempDewpointWater temp
2015-Jun-24 22:19N 35°36' E 140°50'7 9.0
2015-Jun-24 21:29N 35°31' E 140°44'9 9.4
2015-Jun-24 20:31N 35°24' E 140°37'9 9.6
2015-Jun-24 19:33N 35°16' E 140°30'1310.4
2015-Jun-24 18:19N 35°06' E 140°20'7 9.5
2015-Jun-24 17:33N 35°02' E 140°13'9 9.3
2015-Jun-24 16:33N 34°56' E 140°04'16 7.8
2015-Jun-24 14:33N 34°57' E 139°45'10 9.6
2015-Jun-24 13:33N 35°06' E 139°46'10 9.5
2015-Jun-24 12:33N 35°16' E 139°46'9 9.0
2015-Jun-24 11:33N 35°25' E 139°43'9 9.2
2015-Jun-24 10:33N 35°30' E 139°53'7 6.1
2015-Jun-24 09:27N 35°28' E 140°01'0 0.0
2015-Jun-24 08:33N 35°28' E 140°01'0 0.0
2015-Jun-24 07:33N 35°28' E 140°01'0 0.0
2015-Jun-24 06:33N 35°28' E 140°01'0 0.4
2015-Jun-24 05:33N 35°29' E 140°01'2 2.1
2015-Jun-24 04:33N 35°30' E 139°59'0 0.3
2015-Jun-24 03:34N 35°30' E 139°58'1010.0
2015-Jun-24 02:34N 35°31' E 139°46'1 0.9
2015-Jun-24 01:33N 35°32' E 139°45'0 0.0
2015-Jun-24 00:27N 35°32' E 139°45'3 3.1
2015-Jun-23 23:33N 35°30' E 139°48'2 1.8
2015-Jun-23 22:32N 35°29' E 139°46'0 0.0
2015-Jun-23 21:32N 35°29' E 139°46'0 0.0
2015-Jun-23 20:32N 35°29' E 139°46'0 0.0
2015-Jun-23 19:32N 35°29' E 139°46'0 0.0
2015-Jun-23 19:05N 35°29' E 139°46'29 1.2
2015-Jun-22 19:33N 35°01' E 139°39'  
2015-Jun-19 15:23N 34°56' E 139°34'910.7
2015-Jun-19 14:33N 34°60' E 139°44'5 4.5
2015-Jun-19 13:22N 35°00' E 139°51'0 0.0
2015-Jun-19 12:28N 35°00' E 139°51'0 0.0
2015-Jun-19 11:28N 35°00' E 139°51'0 0.0
2015-Jun-19 10:31N 35°00' E 139°51'0 0.0
2015-Jun-19 09:28N 35°00' E 139°51'0 0.0
2015-Jun-19 08:28N 35°00' E 139°51'0 0.0
2015-Jun-19 07:28N 35°00' E 139°51'0 0.0
2015-Jun-19 06:10N 35°00' E 139°51'0 0.0
2015-Jun-19 05:31N 35°00' E 139°51'0 0.0
2015-Jun-19 04:22N 35°00' E 139°51'0 0.0
2015-Jun-19 03:28N 35°00' E 139°51'0 0.0
2015-Jun-19 02:28N 35°00' E 139°51'0 0.0
2015-Jun-19 01:31N 35°00' E 139°51'0 0.0
2015-Jun-19 00:28N 35°00' E 139°51'4 4.4
2015-Jun-18 23:34N 35°00' E 139°46'13 6.7
2015-Jun-18 21:33N 34°55' E 140°01'1010.3
2015-Jun-18 20:33N 35°01' E 140°12'13 9.7
2015-Jun-18 19:14N 35°08' E 140°24'8 9.8
2015-Jun-18 18:24N 35°15' E 140°30'910.7
2015-Jun-18 17:33N 35°22' E 140°36'1010.2
2015-Jun-18 16:34N 35°30' E 140°44'1110.5
2015-Jun-18 15:34N 35°39' E 140°52'10 9.9
2015-Jun-18 14:32N 35°48' E 140°55'1010.3
2015-Jun-18 13:33N 35°59' E 140°56'  

Dump ship's entire track history